createdAt,value
2022-10-01T00:00:09.364Z,99.90
2022-10-01T00:01:24.882Z,99.90
2022-10-01T00:02:49.939Z,99.90
2022-10-01T00:04:07.702Z,99.90
2022-10-01T00:05:19.233Z,99.90
2022-10-01T00:06:29.895Z,99.90
2022-10-01T00:07:54.432Z,99.90
2022-10-01T00:10:52.532Z,99.90
2022-10-01T00:12:10.193Z,99.90
2022-10-01T00:13:28.084Z,99.90
2022-10-01T00:14:51.157Z,99.90
2022-10-01T00:16:05.145Z,99.90
2022-10-01T00:17:30.134Z,99.90
2022-10-01T00:18:38.555Z,99.90
2022-10-01T00:20:00.222Z,99.90
2022-10-01T00:21:19.653Z,99.90
2022-10-01T00:22:43.726Z,99.90
2022-10-01T00:23:54.336Z,99.90
2022-10-01T00:25:07.987Z,99.90
2022-10-01T00:26:20.057Z,99.90
2022-10-01T00:27:39.224Z,99.90
2022-10-01T00:29:11.188Z,99.90
2022-10-01T00:30:24.497Z,99.90
2022-10-01T00:31:30.457Z,99.90
2022-10-01T00:32:44.921Z,99.90
2022-10-01T00:33:51.512Z,99.90
2022-10-01T00:35:32.836Z,99.90
2022-10-01T00:36:41.324Z,99.90
2022-10-01T00:39:32.957Z,99.90
2022-10-01T00:41:06.262Z,99.90
2022-10-01T00:42:28.914Z,99.90
2022-10-01T00:43:43.923Z,99.90
2022-10-01T00:45:12.632Z,99.90
2022-10-01T00:46:25.113Z,99.90
2022-10-01T00:47:41.691Z,99.90
2022-10-01T00:48:55.817Z,99.90
2022-10-01T00:50:22.699Z,99.90
2022-10-01T00:51:46.521Z,99.90
2022-10-01T00:54:13.598Z,99.90
2022-10-01T00:55:27.429Z,99.90
2022-10-01T00:56:56.561Z,99.90
2022-10-01T00:58:01.677Z,99.90
2022-10-01T00:59:33.815Z,99.90
2022-10-01T01:00:42.954Z,99.90
2022-10-01T01:01:57.474Z,99.90
2022-10-01T01:03:37.281Z,99.90
2022-10-01T01:04:54.255Z,99.90
2022-10-01T01:06:12.313Z,99.90
2022-10-01T01:07:35.090Z,99.90
2022-10-01T01:09:02.743Z,99.90
2022-10-01T01:10:13.005Z,99.90
2022-10-01T01:11:39.194Z,99.90
2022-10-01T01:13:10.961Z,99.90
2022-10-01T01:14:35.667Z,99.90
2022-10-01T01:16:03.144Z,99.90
2022-10-01T01:17:24.544Z,99.90
2022-10-01T01:18:59.055Z,99.90
2022-10-01T01:20:30.226Z,99.90
2022-10-01T01:22:06.173Z,99.90
2022-10-01T01:23:57.086Z,99.90
2022-10-01T01:27:05.235Z,99.90
2022-10-01T01:28:32.666Z,99.90
2022-10-01T01:31:17.838Z,99.90
2022-10-01T01:36:54.730Z,99.90
2022-10-01T01:38:09.865Z,99.90
2022-10-01T01:39:19.319Z,99.90
2022-10-01T01:40:26.026Z,99.90
2022-10-01T01:43:30.142Z,99.90
2022-10-01T01:44:46.119Z,99.90
2022-10-01T01:45:58.722Z,99.90
2022-10-01T01:47:21.882Z,99.90
2022-10-01T01:48:37.917Z,99.90
2022-10-01T01:49:45.519Z,99.90
2022-10-01T01:52:29.846Z,99.90
2022-10-01T01:53:46.919Z,99.90
2022-10-01T01:55:01.538Z,99.90
2022-10-01T01:56:12.829Z,99.90
2022-10-01T01:57:25.233Z,99.90
2022-10-01T01:58:40.280Z,99.90
2022-10-01T01:59:51.118Z,99.90
2022-10-01T02:00:57.592Z,99.90
2022-10-01T02:04:05.926Z,99.90
2022-10-01T02:05:17.095Z,99.90
2022-10-01T02:06:55.225Z,99.90
2022-10-01T02:08:51.183Z,99.90
2022-10-01T02:10:19.315Z,99.90
2022-10-01T02:11:38.141Z,99.90
2022-10-01T02:13:09.569Z,99.90
2022-10-01T02:16:34.239Z,99.90
2022-10-01T02:18:00.917Z,99.90
2022-10-01T02:19:29.070Z,99.90
2022-10-01T02:20:55.528Z,99.90
2022-10-01T02:22:21.848Z,99.90
2022-10-01T02:24:07.789Z,99.90
2022-10-01T02:25:38.326Z,99.90
2022-10-01T02:27:05.440Z,99.90
2022-10-01T02:28:15.926Z,99.90
2022-10-01T02:30:04.717Z,99.90
2022-10-01T02:31:20.916Z,99.90
2022-10-01T02:32:28.858Z,99.90
2022-10-01T02:33:47.535Z,99.90
2022-10-01T02:35:01.685Z,99.90
2022-10-01T02:36:17.531Z,99.90
2022-10-01T02:37:27.852Z,99.90
2022-10-01T02:38:56.018Z,99.90
2022-10-01T02:40:18.328Z,99.90
2022-10-01T02:41:32.843Z,99.90
2022-10-01T02:42:46.138Z,99.90
2022-10-01T02:44:06.049Z,99.90
2022-10-01T02:45:29.832Z,99.90
2022-10-01T02:48:18.509Z,99.90
2022-10-01T02:51:34.383Z,99.90
2022-10-01T02:53:18.284Z,99.90
2022-10-01T02:54:45.538Z,99.90
2022-10-01T02:56:26.545Z,99.90
2022-10-01T02:57:41.569Z,99.90
2022-10-01T02:58:56.081Z,99.90
2022-10-01T03:01:35.696Z,99.90
2022-10-01T03:03:18.619Z,99.90
2022-10-01T03:06:24.891Z,99.90
2022-10-01T03:07:33.130Z,99.90
2022-10-01T03:10:50.558Z,99.90
2022-10-01T03:12:01.840Z,99.90
2022-10-01T03:15:31.799Z,99.90
2022-10-01T03:16:51.831Z,99.90
2022-10-01T03:20:03.982Z,99.90
2022-10-01T03:22:57.084Z,99.90
2022-10-01T03:24:01.982Z,99.90
2022-10-01T03:25:29.560Z,99.90
2022-10-01T03:26:57.631Z,99.90
2022-10-01T03:28:04.179Z,99.90
2022-10-01T03:30:59.554Z,99.90
2022-10-01T03:32:20.503Z,99.90
2022-10-01T03:33:31.762Z,99.90
2022-10-01T03:34:48.435Z,99.90
2022-10-01T03:36:22.801Z,99.90
2022-10-01T03:38:00.220Z,99.90
2022-10-01T03:39:22.130Z,99.90
2022-10-01T03:40:42.264Z,99.90
2022-10-01T03:41:53.889Z,99.90
2022-10-01T03:43:17.131Z,99.90
2022-10-01T03:44:31.503Z,99.90
2022-10-01T03:45:38.726Z,99.90
2022-10-01T03:46:54.005Z,99.90
2022-10-01T03:48:36.725Z,99.90
2022-10-01T03:49:45.863Z,99.90
2022-10-01T03:52:25.023Z,99.90
2022-10-01T03:53:43.023Z,99.90
2022-10-01T03:55:24.365Z,99.90
2022-10-01T03:56:43.352Z,99.90
2022-10-01T04:01:12.243Z,99.90
2022-10-01T04:02:27.445Z,99.90
2022-10-01T04:03:37.210Z,99.90
2022-10-01T04:04:52.621Z,99.90
2022-10-01T04:06:07.443Z,99.90
2022-10-01T04:07:38.113Z,99.90
2022-10-01T04:09:17.752Z,99.90
2022-10-01T04:10:25.311Z,99.90
2022-10-01T04:11:34.898Z,99.90
2022-10-01T04:14:18.421Z,99.90
2022-10-01T04:15:28.155Z,99.90
2022-10-01T04:16:40.288Z,99.90
2022-10-01T04:17:59.367Z,99.90
2022-10-01T04:19:05.524Z,99.90
2022-10-01T04:20:18.551Z,99.90
2022-10-01T04:21:37.666Z,99.90
2022-10-01T04:22:50.401Z,99.90
2022-10-01T04:24:07.799Z,99.90
2022-10-01T04:25:17.603Z,99.90
2022-10-01T04:26:54.235Z,99.90
2022-10-01T04:28:08.107Z,99.90
2022-10-01T04:29:23.577Z,99.90
2022-10-01T04:30:38.329Z,99.90
2022-10-01T04:31:50.010Z,99.90
2022-10-01T04:33:06.483Z,99.90
2022-10-01T04:34:15.641Z,99.90
2022-10-01T04:35:31.122Z,99.90
2022-10-01T04:36:52.084Z,99.90
2022-10-01T04:38:08.211Z,99.90
2022-10-01T04:39:37.191Z,99.90
2022-10-01T04:41:25.314Z,99.90
2022-10-01T04:42:47.493Z,99.90
2022-10-01T04:44:33.283Z,99.90
2022-10-01T04:45:45.335Z,99.90
2022-10-01T04:49:02.741Z,99.90
2022-10-01T04:50:13.962Z,99.90
2022-10-01T04:51:33.187Z,99.90
2022-10-01T04:52:42.548Z,99.90
2022-10-01T04:55:08.335Z,99.90
2022-10-01T04:57:52.287Z,99.90
2022-10-01T04:59:11.087Z,99.90
2022-10-01T05:00:56.439Z,99.90
2022-10-01T05:02:12.997Z,99.90
2022-10-01T05:03:31.310Z,99.90
2022-10-01T05:04:43.790Z,99.90
2022-10-01T05:05:55.853Z,99.90
2022-10-01T05:07:21.015Z,99.90
2022-10-01T05:08:29.374Z,99.90
2022-10-01T05:09:46.011Z,99.90
2022-10-01T05:11:19.181Z,99.90
2022-10-01T05:12:43.744Z,99.90
2022-10-01T05:13:59.172Z,99.90
2022-10-01T05:15:26.539Z,99.90
2022-10-01T05:16:38.684Z,99.90
2022-10-01T05:17:59.988Z,99.90
2022-10-01T05:19:27.889Z,99.90
2022-10-01T05:20:35.182Z,99.90
2022-10-01T05:21:48.590Z,99.90
2022-10-01T05:23:07.623Z,99.90
2022-10-01T05:24:17.327Z,99.90
2022-10-01T05:25:31.449Z,99.90
2022-10-01T05:26:54.641Z,99.90
2022-10-01T05:28:09.457Z,99.90
2022-10-01T05:29:16.721Z,99.90
2022-10-01T05:30:39.961Z,99.90
2022-10-01T05:32:07.251Z,99.90
2022-10-01T05:33:16.993Z,99.90
2022-10-01T05:34:32.752Z,99.90
2022-10-01T05:35:43.571Z,99.90
2022-10-01T05:36:58.979Z,99.90
2022-10-01T05:38:29.150Z,99.90
2022-10-01T05:41:40.486Z,99.90
2022-10-01T05:43:00.129Z,99.90
2022-10-01T05:44:16.305Z,99.90
2022-10-01T05:45:34.761Z,99.90
2022-10-01T05:48:20.548Z,99.90
2022-10-01T05:49:34.067Z,99.90
2022-10-01T05:50:57.895Z,99.90
2022-10-01T05:55:07.747Z,99.90
2022-10-01T05:56:13.218Z,99.90
2022-10-01T05:57:17.570Z,99.90
2022-10-01T05:58:31.547Z,99.90
2022-10-01T05:59:37.998Z,99.90
2022-10-01T06:00:45.424Z,99.90
2022-10-01T06:01:56.910Z,99.90
2022-10-01T06:03:13.264Z,99.90
2022-10-01T06:04:28.374Z,99.90
2022-10-01T06:05:34.519Z,99.90
2022-10-01T06:07:03.802Z,99.90
2022-10-01T06:08:16.434Z,99.90
2022-10-01T06:09:25.869Z,99.90
2022-10-01T06:10:41.350Z,99.90
2022-10-01T06:11:52.406Z,99.90
2022-10-01T06:13:01.978Z,99.90
2022-10-01T06:14:08.457Z,99.90
2022-10-01T06:15:13.639Z,99.90
2022-10-01T06:16:18.926Z,99.90
2022-10-01T06:17:23.787Z,99.90
2022-10-01T06:18:34.741Z,99.90
2022-10-01T06:19:38.202Z,99.90
2022-10-01T06:20:45.793Z,99.90
2022-10-01T06:21:54.037Z,99.90
2022-10-01T06:23:00.846Z,99.90
2022-10-01T06:24:08.509Z,99.90
2022-10-01T06:25:16.559Z,99.90
2022-10-01T06:26:24.543Z,99.90
2022-10-01T06:27:32.154Z,99.90
2022-10-01T06:28:40.749Z,99.90
2022-10-01T06:29:55.385Z,99.90
2022-10-01T06:31:05.468Z,99.90
2022-10-01T06:32:11.940Z,99.90
2022-10-01T06:33:18.769Z,99.90
2022-10-01T06:34:22.705Z,99.90
2022-10-01T06:35:34.832Z,99.90
2022-10-01T06:36:41.823Z,99.90
2022-10-01T06:37:55.908Z,99.90
2022-10-01T06:39:09.880Z,99.90
2022-10-01T06:40:14.916Z,99.90
2022-10-01T06:41:21.783Z,99.90
2022-10-01T06:42:36.015Z,99.90
2022-10-01T06:43:44.752Z,99.90
2022-10-01T06:44:55.038Z,99.90
2022-10-01T06:48:05.064Z,99.90
2022-10-01T06:49:12.858Z,99.90
2022-10-01T06:50:32.385Z,99.90
2022-10-01T06:52:06.720Z,99.90
2022-10-01T06:56:21.785Z,99.90
2022-10-01T06:57:25.395Z,99.90
2022-10-01T06:58:43.319Z,99.90
2022-10-01T06:59:51.078Z,99.90
2022-10-01T07:01:14.142Z,99.90
2022-10-01T07:02:31.156Z,99.90
2022-10-01T07:03:44.984Z,99.90
2022-10-01T07:04:55.875Z,99.90
2022-10-01T07:06:08.315Z,99.90
2022-10-01T07:07:17.742Z,99.90
2022-10-01T07:08:59.936Z,99.90
2022-10-01T07:10:23.534Z,99.90
2022-10-01T07:11:49.174Z,99.90
2022-10-01T07:12:57.025Z,99.90
2022-10-01T07:14:13.870Z,99.90
2022-10-01T07:15:28.308Z,99.90
2022-10-01T07:16:37.240Z,99.90
2022-10-01T07:17:54.802Z,99.90
2022-10-01T07:19:16.485Z,99.90
2022-10-01T07:20:28.371Z,99.90
2022-10-01T07:21:47.485Z,99.90
2022-10-01T07:23:16.470Z,99.90
2022-10-01T07:24:29.303Z,99.90
2022-10-01T07:25:39.925Z,99.90
2022-10-01T07:28:04.453Z,99.90
2022-10-01T07:29:14.316Z,99.90
2022-10-01T07:30:28.762Z,99.90
2022-10-01T07:31:36.129Z,99.90
2022-10-01T07:33:13.059Z,99.90
2022-10-01T07:34:18.784Z,99.90
2022-10-01T07:35:56.357Z,99.90
2022-10-01T07:37:35.190Z,99.90
2022-10-01T07:39:16.062Z,99.90
2022-10-01T07:40:43.113Z,99.90
2022-10-01T07:45:48.526Z,99.90
2022-10-01T07:47:13.931Z,99.90
2022-10-01T07:52:42.190Z,99.90
2022-10-01T07:54:43.894Z,99.90
2022-10-01T07:55:47.420Z,99.90
2022-10-01T07:57:01.192Z,99.90
2022-10-01T07:58:14.910Z,99.80
2022-10-01T07:59:29.012Z,99.40
2022-10-01T08:01:01.755Z,99.60
2022-10-01T08:02:38.523Z,99.60
2022-10-01T08:04:38.327Z,99.20
2022-10-01T08:06:05.957Z,98.80
2022-10-01T08:07:18.194Z,98.20
2022-10-01T08:08:26.024Z,97.90
2022-10-01T08:09:39.986Z,97.30
2022-10-01T08:12:23.745Z,97.60
2022-10-01T08:15:25.527Z,96.80
2022-10-01T08:19:10.327Z,96.10
2022-10-01T08:20:19.483Z,96.00
2022-10-01T08:21:34.606Z,96.40
2022-10-01T08:23:03.665Z,96.20
2022-10-01T08:25:48.574Z,96.20
2022-10-01T08:27:18.742Z,94.40
2022-10-01T08:28:38.974Z,93.90
2022-10-01T08:29:48.613Z,94.40
2022-10-01T08:32:40.694Z,93.80
2022-10-01T08:34:12.370Z,94.10
2022-10-01T08:35:29.300Z,94.30
2022-10-01T08:36:43.399Z,94.40
2022-10-01T08:38:10.093Z,94.50
2022-10-01T08:39:36.924Z,94.50
2022-10-01T08:40:53.723Z,94.00
2022-10-01T08:42:21.428Z,94.70
2022-10-01T08:43:37.429Z,95.10
2022-10-01T08:44:49.137Z,94.60
2022-10-01T08:46:00.147Z,94.70
2022-10-01T08:47:22.106Z,94.90
2022-10-01T08:50:19.868Z,95.70
2022-10-01T08:51:40.899Z,95.80
2022-10-01T08:53:11.986Z,95.80
2022-10-01T08:54:35.857Z,96.00
2022-10-01T08:55:54.626Z,96.30
2022-10-01T08:57:04.811Z,96.70
2022-10-01T08:58:16.496Z,96.90
2022-10-01T08:59:41.900Z,96.50
2022-10-01T09:01:28.233Z,96.50
2022-10-01T09:03:05.194Z,96.30
2022-10-01T09:04:17.448Z,96.50
2022-10-01T09:05:31.415Z,96.80
2022-10-01T09:06:41.303Z,96.90
2022-10-01T09:07:49.736Z,96.40
2022-10-01T09:09:11.845Z,97.20
2022-10-01T09:10:38.135Z,97.30
2022-10-01T09:12:12.391Z,97.30
2022-10-01T09:16:51.830Z,97.60
2022-10-01T09:20:09.612Z,98.10
2022-10-01T09:21:44.137Z,99.00
2022-10-01T09:23:09.341Z,99.40
2022-10-01T09:24:16.420Z,98.50
2022-10-01T09:27:10.469Z,98.70
2022-10-01T09:28:23.512Z,98.40
2022-10-01T09:29:53.142Z,98.30
2022-10-01T09:31:02.402Z,98.40
2022-10-01T09:32:15.773Z,98.90
2022-10-01T09:33:41.739Z,99.00
2022-10-01T09:34:53.448Z,99.60
2022-10-01T09:36:18.313Z,99.30
2022-10-01T09:37:30.794Z,99.10
2022-10-01T09:38:51.351Z,99.20
2022-10-01T09:40:24.603Z,99.10
2022-10-01T09:41:33.962Z,99.30
2022-10-01T09:42:46.358Z,99.50
2022-10-01T09:44:04.954Z,99.60
2022-10-01T09:45:14.493Z,99.90
2022-10-01T09:46:32.217Z,99.90
2022-10-01T09:47:37.965Z,99.70
2022-10-01T09:49:02.111Z,99.60
2022-10-01T09:50:22.824Z,99.40
2022-10-01T09:51:40.431Z,99.50
2022-10-01T09:54:28.084Z,99.90
2022-10-01T09:55:40.783Z,99.90
2022-10-01T09:57:01.914Z,99.90
2022-10-01T09:58:27.528Z,99.90
2022-10-01T10:00:07.390Z,99.90
2022-10-01T10:01:47.659Z,99.90
2022-10-01T10:02:56.618Z,99.90
2022-10-01T10:04:35.082Z,99.90
2022-10-01T10:05:49.774Z,99.90
2022-10-01T10:07:10.106Z,99.90
2022-10-01T10:08:22.129Z,99.90
2022-10-01T10:09:53.721Z,99.90
2022-10-01T10:11:08.607Z,99.60
2022-10-01T10:12:39.407Z,99.90
2022-10-01T10:15:41.416Z,98.20
2022-10-01T10:17:09.793Z,98.60
2022-10-01T10:18:51.034Z,98.60
2022-10-01T10:20:16.529Z,97.80
2022-10-01T10:21:31.671Z,96.50
2022-10-01T10:22:38.947Z,96.20
2022-10-01T10:23:57.085Z,96.70
2022-10-01T10:25:24.239Z,96.80
2022-10-01T10:28:09.462Z,97.70
2022-10-01T10:29:37.038Z,98.00
2022-10-01T10:30:48.435Z,98.10
2022-10-01T10:32:24.663Z,98.60
2022-10-01T10:33:30.474Z,98.80
2022-10-01T10:34:44.498Z,98.20
2022-10-01T10:36:13.137Z,98.30
2022-10-01T10:37:31.793Z,98.70
2022-10-01T10:38:40.092Z,99.70
2022-10-01T10:39:53.436Z,99.40
2022-10-01T10:40:59.458Z,99.30
2022-10-01T10:42:18.645Z,99.60
2022-10-01T10:43:30.519Z,99.90
2022-10-01T10:44:40.288Z,99.70
2022-10-01T10:45:50.936Z,99.80
2022-10-01T10:47:03.010Z,99.40
2022-10-01T10:48:16.359Z,99.70
2022-10-01T10:49:35.896Z,99.20
2022-10-01T10:50:51.734Z,99.50
2022-10-01T10:52:08.729Z,99.80
2022-10-01T10:53:41.529Z,99.50
2022-10-01T10:54:58.300Z,99.40
2022-10-01T10:56:18.755Z,99.60
2022-10-01T10:57:37.763Z,99.60
2022-10-01T10:58:45.101Z,99.90
2022-10-01T11:00:01.642Z,99.60
2022-10-01T11:01:25.339Z,99.60
2022-10-01T11:02:42.475Z,99.90
2022-10-01T11:03:51.783Z,99.50
2022-10-01T11:04:56.896Z,99.50
2022-10-01T11:06:18.897Z,99.50
2022-10-01T11:07:27.182Z,99.60
2022-10-01T11:08:34.591Z,99.60
2022-10-01T11:10:00.660Z,99.60
2022-10-01T11:11:33.558Z,99.90
2022-10-01T11:12:58.954Z,99.90
2022-10-01T11:14:23.616Z,99.90
2022-10-01T11:15:47.507Z,99.90
2022-10-01T11:17:29.434Z,99.90
2022-10-01T11:18:52.806Z,99.90
2022-10-01T11:20:14.655Z,99.90
2022-10-01T11:21:46.043Z,99.50
2022-10-01T11:23:11.302Z,99.40
2022-10-01T11:24:38.965Z,99.50
2022-10-01T11:25:55.462Z,99.50
2022-10-01T11:27:11.184Z,99.50
2022-10-01T11:28:35.927Z,99.60
2022-10-01T11:29:57.624Z,99.00
2022-10-01T11:31:14.046Z,98.60
2022-10-01T11:32:37.363Z,98.40
2022-10-01T11:34:00.373Z,98.40
2022-10-01T11:35:36.079Z,98.80
2022-10-01T11:36:50.912Z,98.70
2022-10-01T11:38:23.802Z,98.00
2022-10-01T11:39:38.117Z,97.30
2022-10-01T11:40:43.906Z,97.30
2022-10-01T11:41:56.413Z,97.50
2022-10-01T11:43:20.135Z,97.40
2022-10-01T11:44:34.255Z,97.00
2022-10-01T11:45:46.696Z,96.80
2022-10-01T11:48:35.747Z,97.10
2022-10-01T11:49:55.825Z,96.50
2022-10-01T11:51:09.149Z,96.80
2022-10-01T11:52:22.522Z,97.10
2022-10-01T11:53:33.666Z,96.80
2022-10-01T11:54:56.251Z,96.00
2022-10-01T11:56:26.701Z,96.20
2022-10-01T11:57:51.271Z,96.20
2022-10-01T11:59:03.296Z,95.80
2022-10-01T12:00:11.770Z,95.90
2022-10-01T12:01:29.701Z,95.50
2022-10-01T12:02:41.657Z,95.50
2022-10-01T12:03:45.677Z,95.10
2022-10-01T12:04:58.251Z,95.30
2022-10-01T12:06:11.283Z,95.10
2022-10-01T12:07:21.882Z,94.90
2022-10-01T12:08:34.234Z,95.20
2022-10-01T12:09:55.214Z,95.00
2022-10-01T12:11:13.207Z,94.50
2022-10-01T12:12:24.064Z,94.80
2022-10-01T12:13:39.642Z,95.20
2022-10-01T12:14:56.410Z,95.70
2022-10-01T12:16:17.596Z,96.10
2022-10-01T12:17:28.677Z,96.30
2022-10-01T12:18:45.530Z,96.50
2022-10-01T12:19:48.649Z,96.10
2022-10-01T12:21:04.965Z,96.30
2022-10-01T12:22:26.449Z,96.50
2022-10-01T12:23:37.627Z,96.10
2022-10-01T12:24:49.573Z,96.40
2022-10-01T12:26:03.489Z,96.40
2022-10-01T12:27:40.988Z,96.10
2022-10-01T12:29:06.257Z,96.50
2022-10-01T12:30:13.800Z,95.90
2022-10-01T12:31:32.568Z,95.90
2022-10-01T12:32:54.247Z,96.00
2022-10-01T12:34:12.949Z,96.00
2022-10-01T12:35:41.743Z,95.70
2022-10-01T12:37:10.249Z,96.00
2022-10-01T12:38:29.884Z,95.70
2022-10-01T12:39:53.655Z,95.70
2022-10-01T12:41:12.041Z,95.60
2022-10-01T12:42:34.804Z,95.80
2022-10-01T12:44:15.731Z,95.30
2022-10-01T12:45:31.497Z,94.80
2022-10-01T12:46:46.661Z,94.40
2022-10-01T12:47:54.419Z,94.30
2022-10-01T12:49:08.897Z,94.20
2022-10-01T12:50:28.427Z,94.50
2022-10-01T12:51:42.256Z,94.30
2022-10-01T12:53:16.377Z,94.20
2022-10-01T12:55:04.948Z,93.80
2022-10-01T12:56:23.355Z,93.40
2022-10-01T12:57:46.088Z,92.90
2022-10-01T12:59:21.472Z,93.00
2022-10-01T13:00:36.296Z,93.00
2022-10-01T13:02:05.011Z,92.80
2022-10-01T13:03:41.204Z,93.10
2022-10-01T13:05:17.131Z,93.10
2022-10-01T13:06:37.484Z,93.70
2022-10-01T13:08:14.003Z,93.40
2022-10-01T13:09:37.527Z,93.70
2022-10-01T13:10:54.374Z,93.50
2022-10-01T13:12:19.673Z,94.00
2022-10-01T13:13:34.970Z,93.80
2022-10-01T13:14:44.684Z,94.20
2022-10-01T13:16:06.625Z,94.20
2022-10-01T13:17:18.408Z,94.30
2022-10-01T13:18:41.572Z,93.90
2022-10-01T13:19:57.666Z,94.30
2022-10-01T13:21:12.831Z,94.20
2022-10-01T13:22:33.102Z,94.60
2022-10-01T13:23:51.630Z,94.80
2022-10-01T13:25:00.999Z,94.20
2022-10-01T13:26:18.475Z,94.40
2022-10-01T13:27:41.422Z,94.50
2022-10-01T13:29:04.598Z,95.00
2022-10-01T13:30:24.647Z,95.10
2022-10-01T13:31:55.737Z,94.80
2022-10-01T13:33:03.409Z,94.90
2022-10-01T13:34:26.749Z,95.10
2022-10-01T13:35:40.839Z,95.30
2022-10-01T13:36:51.687Z,95.30
2022-10-01T13:37:57.049Z,95.50
2022-10-01T13:39:05.766Z,95.30
2022-10-01T13:40:27.301Z,95.20
2022-10-01T13:41:37.689Z,95.80
2022-10-01T13:42:47.754Z,95.30
2022-10-01T13:44:01.463Z,95.40
2022-10-01T13:45:11.823Z,95.40
2022-10-01T13:46:20.622Z,95.30
2022-10-01T13:47:24.629Z,95.20
2022-10-01T13:48:36.712Z,95.10
2022-10-01T13:49:43.322Z,95.40
2022-10-01T13:51:14.157Z,95.10
2022-10-01T13:52:23.267Z,95.30
2022-10-01T13:53:46.454Z,95.40
2022-10-01T13:55:04.376Z,95.80
2022-10-01T13:56:26.375Z,95.30
2022-10-01T13:57:58.133Z,95.10
2022-10-01T13:59:43.211Z,95.30
2022-10-01T14:00:57.262Z,95.50
2022-10-01T14:02:18.058Z,95.40
2022-10-01T14:03:48.325Z,95.30
2022-10-01T14:05:28.068Z,95.40
2022-10-01T14:06:51.960Z,95.50
2022-10-01T14:08:13.652Z,95.30
2022-10-01T14:09:24.788Z,95.40
2022-10-01T14:11:02.001Z,95.60
2022-10-01T14:12:46.246Z,95.60
2022-10-01T14:14:34.427Z,95.80
2022-10-01T14:16:16.004Z,95.80
2022-10-01T14:19:28.724Z,96.20
2022-10-01T14:21:17.764Z,96.30
2022-10-01T14:22:59.966Z,96.50
2022-10-01T14:24:22.260Z,95.70
2022-10-01T14:26:15.129Z,96.10
2022-10-01T14:28:03.153Z,96.10
2022-10-01T14:29:30.474Z,96.10
2022-10-01T14:30:55.438Z,96.20
2022-10-01T14:32:44.604Z,96.40
2022-10-01T14:34:39.560Z,96.10
2022-10-01T14:36:09.851Z,96.70
2022-10-01T14:37:32.649Z,96.70
2022-10-01T14:38:45.346Z,96.70
2022-10-01T14:40:01.682Z,96.90
2022-10-01T14:41:19.302Z,97.00
2022-10-01T14:42:33.458Z,97.10
2022-10-01T14:43:42.059Z,97.10
2022-10-01T14:44:50.915Z,97.20
2022-10-01T14:45:58.005Z,97.30
2022-10-01T14:47:14.891Z,97.40
2022-10-01T14:48:19.854Z,97.50
2022-10-01T14:49:28.565Z,97.50
2022-10-01T14:50:49.124Z,97.60
2022-10-01T14:52:01.105Z,97.70
2022-10-01T14:53:19.706Z,98.00
2022-10-01T14:54:26.258Z,97.80
2022-10-01T14:55:39.977Z,97.80
2022-10-01T14:56:44.765Z,97.80
2022-10-01T14:57:54.694Z,97.60
2022-10-01T14:59:11.092Z,97.90
2022-10-01T15:00:33.441Z,98.00
2022-10-01T15:01:39.204Z,97.90
2022-10-01T15:02:46.849Z,97.90
2022-10-01T15:03:54.846Z,97.90
2022-10-01T15:05:02.624Z,97.90
2022-10-01T15:06:14.797Z,97.90
2022-10-01T15:07:23.952Z,98.00
2022-10-01T15:08:44.892Z,97.90
2022-10-01T15:10:01.487Z,98.10
2022-10-01T15:11:11.330Z,98.10
2022-10-01T15:12:20.402Z,98.30
2022-10-01T15:13:32.748Z,98.20
2022-10-01T15:14:41.041Z,98.50
2022-10-01T15:15:59.258Z,98.50
2022-10-01T15:17:14.128Z,98.50
2022-10-01T15:18:40.252Z,98.50
2022-10-01T15:19:53.332Z,98.60
2022-10-01T15:21:06.683Z,98.60
2022-10-01T15:23:37.954Z,98.70
2022-10-01T15:24:50.422Z,98.70
2022-10-01T15:26:24.312Z,98.80
2022-10-01T15:27:54.169Z,98.80
2022-10-01T15:29:10.683Z,98.80
2022-10-01T15:30:21.871Z,98.90
2022-10-01T15:31:40.985Z,99.00
2022-10-01T15:32:45.308Z,99.10
2022-10-01T15:34:26.739Z,99.10
2022-10-01T15:35:34.807Z,99.20
2022-10-01T15:36:45.482Z,99.20
2022-10-01T15:38:01.461Z,99.30
2022-10-01T15:39:31.345Z,99.30
2022-10-01T15:40:50.249Z,99.60
2022-10-01T15:42:12.684Z,99.50
2022-10-01T15:45:26.438Z,99.60
2022-10-01T15:46:40.607Z,99.60
2022-10-01T15:48:30.699Z,99.70
2022-10-01T15:49:42.101Z,99.60
2022-10-01T15:51:00.701Z,99.60
2022-10-01T15:52:37.397Z,99.70
2022-10-01T15:53:53.237Z,99.70
2022-10-01T15:55:02.141Z,99.70
2022-10-01T15:56:15.632Z,99.90
2022-10-01T15:57:25.627Z,99.90
2022-10-01T15:58:37.814Z,99.90
2022-10-01T15:59:43.145Z,99.90
2022-10-01T16:02:23.267Z,99.90
2022-10-01T16:03:35.634Z,99.90
2022-10-01T16:04:43.541Z,99.90
2022-10-01T16:05:50.755Z,99.90
2022-10-01T16:06:57.484Z,99.90
2022-10-01T16:08:04.006Z,99.90
2022-10-01T16:09:20.282Z,99.90
2022-10-01T16:10:34.154Z,99.90
2022-10-01T16:11:57.745Z,99.90
2022-10-01T16:13:24.189Z,99.90
2022-10-01T16:14:51.410Z,99.90
2022-10-01T16:16:31.093Z,99.90
2022-10-01T16:17:41.283Z,99.90
2022-10-01T16:18:48.072Z,99.90
2022-10-01T16:20:04.061Z,99.90
2022-10-01T16:22:48.631Z,99.90
2022-10-01T16:24:28.075Z,99.90
2022-10-01T16:25:38.396Z,99.90
2022-10-01T16:26:45.945Z,99.90
2022-10-01T16:28:04.547Z,99.90
2022-10-01T16:29:23.193Z,99.90
2022-10-01T16:30:37.731Z,99.90
2022-10-01T16:31:50.707Z,99.90
2022-10-01T16:32:57.880Z,99.90
2022-10-01T16:34:01.995Z,99.90
2022-10-01T16:35:26.029Z,99.90
2022-10-01T16:36:37.879Z,99.90
2022-10-01T16:37:44.334Z,99.90
2022-10-01T16:38:52.531Z,99.90
2022-10-01T16:40:04.617Z,99.90
2022-10-01T16:41:16.004Z,99.90
2022-10-01T16:42:24.800Z,99.90
2022-10-01T16:43:45.683Z,99.90
2022-10-01T16:44:59.780Z,99.90
2022-10-01T16:46:13.264Z,99.90
2022-10-01T16:47:21.649Z,99.90
2022-10-01T16:48:36.030Z,99.90
2022-10-01T16:49:43.073Z,99.90
2022-10-01T16:50:53.687Z,99.90
2022-10-01T16:52:01.086Z,99.90
2022-10-01T16:53:07.214Z,99.90
2022-10-01T16:54:24.115Z,99.90
2022-10-01T16:55:36.317Z,99.90
2022-10-01T16:56:45.145Z,99.90
2022-10-01T16:58:09.841Z,99.90
2022-10-01T16:59:25.310Z,99.90
2022-10-01T17:00:34.417Z,99.90
2022-10-01T17:01:45.775Z,99.90
2022-10-01T17:02:56.651Z,99.90
2022-10-01T17:05:41.082Z,99.90
2022-10-01T17:07:05.112Z,99.90
2022-10-01T17:08:16.514Z,99.90
2022-10-01T17:11:12.972Z,99.90
2022-10-01T17:12:23.981Z,99.90
2022-10-01T17:13:41.593Z,99.90
2022-10-01T17:14:53.157Z,99.90
2022-10-01T17:16:02.914Z,99.90
2022-10-01T17:17:26.839Z,99.90
2022-10-01T17:18:47.271Z,99.90
2022-10-01T17:28:42.135Z,99.90
2022-10-01T17:29:58.891Z,99.90
2022-10-01T17:31:18.039Z,99.90
2022-10-01T17:32:37.672Z,99.90
2022-10-01T17:34:09.892Z,99.90
2022-10-01T17:37:09.973Z,99.90
2022-10-01T17:38:38.067Z,99.90
2022-10-01T17:39:48.711Z,99.90
2022-10-01T17:41:13.880Z,99.90
2022-10-01T17:44:21.670Z,99.90
2022-10-01T17:45:39.429Z,99.90
2022-10-01T17:46:48.974Z,99.90
2022-10-01T17:47:59.891Z,99.90
2022-10-01T17:49:15.206Z,99.90
2022-10-01T17:50:25.297Z,99.90
2022-10-01T17:51:36.324Z,99.90
2022-10-01T17:52:49.383Z,99.90
2022-10-01T17:54:08.920Z,99.90
2022-10-01T17:55:24.167Z,99.90
2022-10-01T17:56:33.774Z,99.90
2022-10-01T17:59:44.656Z,99.90
2022-10-01T18:01:09.600Z,99.90
2022-10-01T18:02:40.516Z,99.90
2022-10-01T18:03:53.810Z,99.90
2022-10-01T18:05:19.648Z,99.90
2022-10-01T18:08:06.903Z,99.90
2022-10-01T18:09:33.674Z,99.90
2022-10-01T18:10:51.774Z,99.90
2022-10-01T18:12:02.591Z,99.90
2022-10-01T18:13:52.159Z,99.90
2022-10-01T18:14:59.925Z,99.90
2022-10-01T18:16:18.328Z,99.90
2022-10-01T18:17:21.865Z,99.90
2022-10-01T18:20:02.834Z,99.90
2022-10-01T18:21:15.482Z,99.90
2022-10-01T18:22:26.694Z,99.90
2022-10-01T18:23:34.780Z,99.90
2022-10-01T18:24:38.364Z,99.90
2022-10-01T18:25:47.465Z,99.90
2022-10-01T18:26:57.158Z,99.90
2022-10-01T18:28:03.342Z,99.90
2022-10-01T18:29:10.531Z,99.90
2022-10-01T18:30:20.366Z,99.90
2022-10-01T18:31:35.858Z,99.90
2022-10-01T18:32:49.584Z,99.90
2022-10-01T18:34:14.378Z,99.90
2022-10-01T18:35:27.050Z,99.90
2022-10-01T18:36:48.179Z,99.90
2022-10-01T18:38:09.014Z,99.90
2022-10-01T18:39:18.571Z,99.90
2022-10-01T18:40:32.462Z,99.90
2022-10-01T18:41:47.633Z,99.90
2022-10-01T18:45:17.041Z,99.90
2022-10-01T18:46:42.385Z,99.90
2022-10-01T18:48:07.331Z,99.90
2022-10-01T18:49:31.205Z,99.90